Weather observations for the past three days for
Stillwater, Stillwater Regional Airport
Imperial (Metric)
Date Time (cdt) Wind (mph) Vis. (mi.) Weather Sky Cond. Temperature (ºF) Relative Humidity Wind Chill (°F) Heat Index (°F) Pressure Precipitation (in)
Air Dwpt 6 hour altimeter (in) sea level (mb) 1 hr 3 hr 6 hr
Max. Min.
02 21:53 SE 10 10.00 Fair CLR 89.1 63 42% 90 29.9 1010.9
02 20:53 SE 10 10.00 Fair CLR 90 63 41% 91 29.89 1010.6
02 19:53 SE 7 10.00 Fair CLR 91.9 62.1 37% 93 29.87 1010.0
02 18:53 SE 14 10.00 Fair CLR 97 62.1 99 95 32% 98 29.87 1009.9
02 17:53 SE 12 10.00 Fair CLR 98.1 63 32% 100 29.88 1010.0
02 16:53 SE 13 10.00 Fair CLR 99 63 31% 101 29.89 1010.3
02 15:53 SE 12 10.00 Fair CLR 98.1 64 33% 101 29.91 1011.0
02 14:53 SE 15 10.00 Fair CLR 98.1 66 35% 102 29.93 1011.8
02 13:53 SE 10 10.00 Fair CLR 97 68 39% 102 29.96 1012.7
02 12:53 SE 9 G 21 10.00 Fair CLR 95 68 95 77 41% 100 29.98 1013.6
02 11:53 S 12 10.00 Fair CLR 93 68 44% 97 30 1014.5
02 10:53 S 13 10.00 Fair CLR 91 69.1 49% 96 30.01 1014.8
02 09:53 S 16 10.00 Fair CLR 88 68 52% 92 30.02 1015.0
02 08:53 S 13 10.00 Fair CLR 82.9 68 61% 86 30.02 1015.0
02 07:53 S 7 10.00 Fair CLR 79 66.9 67% 81 30.01 1014.8
02 06:53 S 8 10.00 Fair CLR 78.1 66 82 77 67% 80 29.99 1014.1
02 05:53 S 6 10.00 Fair CLR 77 66 69% 79 29.99 1013.7
02 04:53 S 8 10.00 Fair CLR 79 64.9 62% 81 29.98 1013.5
02 03:53 S 8 10.00 Fair CLR 80.1 64.9 60% 82 29.97 1013.4
02 02:53 S 6 10.00 Fair CLR 79 64 60% 81 29.97 1013.3
02 01:53 S 5 10.00 Fair CLR 80.1 64 58% 82 29.97 1013.2
02 00:53 S 7 10.00 Fair CLR 81 64 93 75.9 57% 83 29.96 1013.0
01 23:53 S 7 10.00 Fair CLR 81 63 54% 82 29.97 1013.1
01 22:53 S 5 10.00 Fair CLR 80.1 64 58% 82 29.96 1013.1
01 21:53 S 5 10.00 Fair CLR 80.1 64 58% 82 29.94 1012.5
01 20:53 SE 6 10.00 Fair CLR 88 61 40% 88 29.92 1011.6
01 19:53 SE 6 10.00 Fair CLR 90 61 38% 90 29.91 1011.5
01 18:53 S 6 10.00 Fair CLR 93 63 99 91.9 37% 94 29.92 1011.7
01 17:53 SE 9 10.00 A Few Clouds FEW100 98.1 60.1 28% 98 29.93 1011.8
01 16:53 SE 12 10.00 A Few Clouds FEW100 98.1 57.9 26% 97 29.93 1011.9
01 15:53 S 8 G 20 10.00 A Few Clouds FEW100 98.1 59 27% 98 29.95 1012.6
01 14:53 SE 9 10.00 Partly Cloudy SCT095 97 60.1 29% 97 29.97 1013.3
01 13:53 S 15 10.00 A Few Clouds FEW100 95 59 30% 94 29.99 1014.0
01 12:53 S 13 G 20 10.00 Partly Cloudy SCT090 97 61 97 68 30% 98 30.01 1014.7
01 11:53 S 8 10.00 Fair CLR 93.9 63 36% 95 30.03 1015.4
01 10:53 S 6 10.00 Fair CLR 90 66 45% 93 30.04 1015.7
01 09:53 SE 9 10.00 Fair CLR 86 66 51% 88 30.05 1016.0
01 08:53 S 5 10.00 Fair CLR 81 64 57% 83 30.05 1016.0
01 07:53 Calm 10.00 Fair CLR 73.9 64.9 74% 30.04 1015.7
01 06:53 Calm 10.00 Fair CLR 69.1 61 79 69.1 76% 30.02 1015.0
01 05:53 S 3 10.00 Fair CLR 73 60.1 64% 30.01 1014.6
01 04:53 SE 6 10.00 Fair CLR 73.9 60.1 62% 30 1014.4
01 03:53 Calm 10.00 Fair CLR 71.1 60.1 68% 29.99 1014.1
01 02:53 Calm 10.00 Fair CLR 73.9 60.1 62% 29.98 1013.8
01 01:53 S 8 10.00 Fair CLR 78.1 59 52% 79 29.98 1013.7
01 00:53 S 8 10.00 Fair CLR 78.1 59 96.1 78.1 52% 79 29.98 1013.7
31 23:53 S 6 10.00 Fair CLR 81 59 47% 81 29.98 1013.5
31 22:53 S 9 10.00 Fair CLR 84 57.9 41% 83 29.98 1013.4
31 21:53 S 10 10.00 Fair CLR 86 59 40% 85 29.96 1012.9
31 20:53 S 9 10.00 Fair CLR 88 59 38% 87 29.94 1012.1
31 19:53 SE 10 10.00 Fair CLR 91.9 57.9 32% 91 29.92 1011.8
31 18:53 S 13 10.00 Fair CLR 96.1 60.1 99 93.9 30% 96 29.92 1011.5
31 17:53 S 13 10.00 A Few Clouds FEW095 98.1 61 29% 99 29.92 1011.4
31 16:53 S 17 G 23 10.00 Fair CLR 98.1 62.1 31% 99 29.92 1011.6
31 15:53 S 12 10.00 A Few Clouds FEW090 99 62.1 30% 100 29.93 1011.9
31 14:53 SE 13 10.00 Partly Cloudy SCT095 98.1 63 32% 100 29.96 1012.7
31 13:53 S 3 10.00 Mostly Cloudy BKN090 95 63 35% 96 29.97 1013.2
31 12:53 S 12 G 20 10.00 Fair CLR 98.1 63 98.1 73 32% 100 29.99 1013.8
31 11:53 S 14 G 21 10.00 Fair CLR 96.1 66 37% 100 30.01 1014.4
31 10:53 S 13 10.00 Fair CLR 91.9 66.9 44% 95 30.01 1014.5
31 09:53 S 10 10.00 Fair CLR 86 64.9 49% 88 30.02 1014.9
31 08:53 S 8 10.00 Fair CLR 81 63 54% 82 30.02 1014.9
31 07:53 SE 5 10.00 Fair CLR 75 63 66% 77 30.01 1014.7
31 06:53 SE 5 10.00 Fair CLR 73 61 82 73 66% 29.99 1013.9
31 05:53 SE 5 10.00 Fair CLR 75 61 62% 77 29.97 1013.1
31 04:53 SE 7 10.00 Fair CLR 75.9 61 60% 78 29.95 1012.5
31 03:53 S 6 10.00 Fair CLR 77 61 58% 79 29.94 1012.1
31 02:53 S 6 10.00 Fair CLR 78.1 61 56% 80 29.94 1012.0
31 01:53 Calm 10.00 Fair CLR 79 61 54% 80 29.93 1012.0
31 00:53 Calm 10.00 Fair CLR 82 61 97 82 49% 83 29.93 1011.8
30 23:53 S 9 10.00 Fair CLR 84 61 46% 84 29.92 1011.5
30 22:53 S 13 10.00 Fair CLR 87.1 60.1 40% 87 29.91 1011.3
Date Time (cdt) Wind (mph) Vis. (mi.) Weather Sky Cond. Air Dwpt Max. Min. Relative Humidity Wind Chill (°F) Heat Index (°F) altimeter (in) sea level (mb) 1 hr 3 hr 6 hr
6 hour
Temperature (ºF) Pressure Precipitation (in)